Time;durP1;ratioP1;P1;durP2;ratioP2;P2;SDS_P1;SDS_P2;PMS_P1;PMS_P2;Temp;Humidity;BMP_temperature;BMP_pressure;BME280_temperature;BME280_humidity;BME280_pressure;Samples;Min_cycle;Max_cycle;Signal;HPM_P1;HPM_P2
2021/06/02 00:02:01;;;;;;;7.85;3.28;;;11.90;56.00;;;;;;5072047;28;20111;-81
2021/06/02 00:04:33;;;;;;;10.98;4.47;;;11.80;56.20;;;;;;5072372;28;20401;-82
2021/06/02 00:07:06;;;;;;;7.53;3.83;;;11.80;56.40;;;;;;5072627;28;20024;-82
2021/06/02 00:09:33;;;;;;;8.70;4.40;;;11.80;56.50;;;;;;5072157;28;20102;-82
2021/06/02 00:12:02;;;;;;;10.32;3.97;;;11.80;56.50;;;;;;5071974;28;20484;-81
2021/06/02 00:14:29;;;;;;;8.18;4.10;;;11.80;56.60;;;;;;5059466;28;20516;-82
2021/06/02 00:16:56;;;;;;;8.85;4.47;;;11.80;56.80;;;;;;5055769;28;20437;-83
2021/06/02 00:19:22;;;;;;;10.73;4.38;;;11.80;56.80;;;;;;5071891;28;20069;-82
2021/06/02 00:21:49;;;;;;;7.70;3.60;;;11.70;56.90;;;;;;5072117;28;20017;-82
2021/06/02 00:24:15;;;;;;;6.60;4.13;;;11.70;56.80;;;;;;5072413;28;20031;-84
2021/06/02 00:26:42;;;;;;;7.55;4.22;;;11.70;56.90;;;;;;5072132;28;20116;-83
2021/06/02 00:29:09;;;;;;;10.10;4.22;;;11.70;57.10;;;;;;5072246;28;20012;-83
2021/06/02 00:31:38;;;;;;;8.10;4.05;;;11.70;57.30;;;;;;5072170;28;20078;-83
2021/06/02 00:34:05;;;;;;;4.82;3.35;;;11.60;57.30;;;;;;5072343;28;20058;-83
2021/06/02 00:36:32;;;;;;;7.10;4.13;;;11.60;57.50;;;;;;5076466;28;20027;-82
2021/06/02 00:39:00;;;;;;;8.23;4.10;;;11.60;57.40;;;;;;5064815;28;20012;-82
2021/06/02 00:41:28;;;;;;;4.70;3.13;;;11.60;57.50;;;;;;5076026;28;20393;-81
2021/06/02 00:43:55;;;;;;;6.78;4.00;;;11.60;57.80;;;;;;5076188;28;20466;-82
2021/06/02 00:46:22;;;;;;;6.10;5.03;;;11.60;57.80;;;;;;5075486;28;20512;-83
2021/06/02 00:48:48;;;;;;;6.97;3.72;;;11.60;57.70;;;;;;5075801;28;20484;-82
2021/06/02 00:51:17;;;;;;;6.35;4.10;;;11.60;57.80;;;;;;5075581;28;20031;-81
2021/06/02 00:53:44;;;;;;;6.10;4.05;;;11.60;58.10;;;;;;5075168;28;20495;-81
2021/06/02 00:56:12;;;;;;;5.57;3.58;;;11.50;58.10;;;;;;5075384;28;20021;-80
2021/06/02 00:58:50;;;;;;;6.30;4.10;;;11.50;58.30;;;;;;5075420;28;20031;-82
2021/06/02 01:01:16;;;;;;;8.15;3.67;;;11.50;58.30;;;;;;5075160;28;20021;-83
2021/06/02 01:03:43;;;;;;;4.50;3.55;;;11.50;58.60;;;;;;5075936;28;20396;-81
2021/06/02 01:06:09;;;;;;;7.10;3.70;;;11.60;58.50;;;;;;5062980;28;20064;-82
2021/06/02 01:08:37;;;;;;;5.93;3.63;;;11.50;58.50;;;;;;5075084;28;20477;-82
2021/06/02 01:11:04;;;;;;;4.78;4.10;;;11.60;58.60;;;;;;5075062;28;20031;-81
2021/06/02 01:13:34;;;;;;;7.45;3.13;;;11.50;58.70;;;;;;5061225;28;20178;-81
2021/06/02 01:15:59;;;;;;;5.95;3.28;;;11.50;58.70;;;;;;5075228;28;20028;-80
2021/06/02 01:18:25;;;;;;;9.20;3.10;;;11.50;58.90;;;;;;5074886;28;20034;-81
2021/06/02 01:20:55;;;;;;;6.97;3.45;;;11.50;59.00;;;;;;5075033;28;20075;-80
2021/06/02 01:23:20;;;;;;;9.98;3.83;;;11.50;59.20;;;;;;5075120;28;20446;-79
2021/06/02 01:25:46;;;;;;;7.35;3.80;;;11.50;59.10;;;;;;5073290;28;20616;-82
2021/06/02 01:28:12;;;;;;;5.40;3.78;;;11.50;59.20;;;;;;5055043;28;20104;-80
2021/06/02 01:30:38;;;;;;;9.23;3.85;;;11.60;59.30;;;;;;5054781;28;20021;-81
2021/06/02 01:33:40;;;;;;;7.72;3.85;;;11.60;59.50;;;;;;5036228;28;20021;-82
2021/06/02 01:36:38;;;;;;;6.90;3.55;;;11.60;59.60;;;;;;5037040;28;20096;-82
2021/06/02 01:39:31;;;;;;;8.07;3.72;;;11.60;59.70;;;;;;5014068;28;20481;-82
2021/06/02 01:42:16;;;;;;;5.45;3.90;;;11.60;59.90;;;;;;5054495;28;20377;-83
2021/06/02 01:45:13;;;;;;;11.80;3.72;;;11.60;60.00;;;;;;5042457;28;20033;-82
2021/06/02 01:48:24;;;;;;;5.57;3.50;;;11.60;59.90;;;;;;5036007;28;20418;-81
2021/06/02 01:51:03;;;;;;;11.18;4.50;;;11.80;59.90;;;;;;5054627;28;20056;-81
2021/06/02 01:53:40;;;;;;;7.38;3.53;;;11.80;59.80;;;;;;5058019;28;20025;-80
2021/06/02 01:56:36;;;;;;;9.80;4.00;;;11.80;59.70;;;;;;5045156;28;20025;-81
2021/06/02 01:59:31;;;;;;;5.22;2.95;;;11.80;59.70;;;;;;5046034;28;20017;-80
2021/06/02 02:02:21;;;;;;;6.25;2.97;;;11.90;60.00;;;;;;5056812;28;20025;-80
2021/06/02 02:05:24;;;;;;;8.10;3.38;;;11.90;59.90;;;;;;5055545;28;20033;-80
2021/06/02 02:08:14;;;;;;;3.38;2.67;;;11.90;59.80;;;;;;5054119;28;20017;-80
2021/06/02 02:10:46;;;;;;;9.18;3.60;;;11.90;60.00;;;;;;5054162;28;20104;-81
2021/06/02 02:13:37;;;;;;;5.75;3.45;;;12.00;60.00;;;;;;5036545;28;20024;-80
2021/06/02 02:16:20;;;;;;;9.38;3.35;;;12.00;59.90;;;;;;5054126;28;20086;-81
2021/06/02 02:19:03;;;;;;;5.00;3.10;;;12.00;59.60;;;;;;5041235;28;20017;-80
2021/06/02 02:21:54;;;;;;;6.43;2.95;;;12.10;59.50;;;;;;5053471;28;20087;-81
2021/06/02 02:24:32;;;;;;;3.70;2.80;;;12.10;59.30;;;;;;5053757;28;20025;-81
2021/06/02 02:27:16;;;;;;;9.05;3.20;;;12.20;59.20;;;;;;5050152;28;20045;-80
2021/06/02 02:29:56;;;;;;;7.07;3.67;;;12.20;59.30;;;;;;5073781;28;20031;-81
2021/06/02 02:32:49;;;;;;;3.65;2.17;;;12.30;59.10;;;;;;5060446;28;20388;-82
2021/06/02 02:35:30;;;;;;;6.47;3.33;;;12.30;58.80;;;;;;5058036;28;20021;-81
2021/06/02 02:38:30;;;;;;;7.97;3.53;;;12.40;58.90;;;;;;5073612;28;20025;-80
2021/06/02 02:41:19;;;;;;;4.53;3.03;;;12.40;58.90;;;;;;5060857;28;20027;-80
2021/06/02 02:43:50;;;;;;;6.57;2.92;;;12.50;58.30;;;;;;5073367;28;20032;-80
2021/06/02 02:46:43;;;;;;;4.72;2.92;;;12.50;58.30;;;;;;5073322;28;20027;-81
2021/06/02 02:49:34;;;;;;;7.22;3.45;;;12.60;58.00;;;;;;5073157;28;20451;-79
2021/06/02 02:52:10;;;;;;;3.75;3.00;;;12.70;57.90;;;;;;5073174;28;20102;-80
2021/06/02 02:55:01;;;;;;;6.78;3.00;;;12.90;57.40;;;;;;5073401;28;20021;-83
2021/06/02 02:57:38;;;;;;;5.72;3.33;;;13.10;57.00;;;;;;5072915;28;20017;-83
2021/06/02 03:00:11;;;;;;;5.45;2.90;;;13.30;56.70;;;;;;5073043;28;20036;-82
2021/06/02 03:02:54;;;;;;;6.15;2.58;;;13.40;56.30;;;;;;5073662;28;20039;-80
2021/06/02 03:05:33;;;;;;;3.85;3.15;;;13.50;55.90;;;;;;5074643;28;20037;-82
2021/06/02 03:08:07;;;;;;;8.73;3.42;;;13.60;55.60;;;;;;5071397;28;20020;-81
2021/06/02 03:10:40;;;;;;;3.40;2.85;;;13.60;54.90;;;;;;5073233;28;20078;-83
2021/06/02 03:13:30;;;;;;;7.25;3.17;;;13.60;55.00;;;;;;5073230;28;20028;-83
2021/06/02 03:15:59;;;;;;;7.25;2.85;;;13.60;55.30;;;;;;5072936;28;20108;-82
2021/06/02 03:18:44;;;;;;;4.43;3.03;;;13.70;55.10;;;;;;5073102;28;20140;-83
2021/06/02 03:21:28;;;;;;;4.80;3.42;;;13.70;54.50;;;;;;5073336;28;20059;-82
2021/06/02 03:23:54;;;;;;;4.97;2.92;;;13.80;54.50;;;;;;5074502;28;20031;-80
2021/06/02 03:26:29;;;;;;;4.97;2.92;;;13.80;55.30;;;;;;5073226;28;20036;-81
2021/06/02 03:29:13;;;;;;;4.82;3.47;;;13.80;54.20;;;;;;5073137;28;20021;-81
2021/06/02 03:32:07;;;;;;;5.78;3.05;;;13.80;54.10;;;;;;5073337;28;20101;-81
2021/06/02 03:35:08;;;;;;;5.45;2.97;;;14.00;54.10;;;;;;5073730;28;20025;-82
2021/06/02 03:37:43;;;;;;;4.88;2.70;;;14.00;53.70;;;;;;5029989;28;20036;-82
2021/06/02 03:40:47;;;;;;;5.47;2.92;;;14.00;53.70;;;;;;5072763;28;20761;-80
2021/06/02 03:43:34;;;;;;;8.07;3.35;;;14.10;53.40;;;;;;5049410;28;20099;-82
2021/06/02 03:46:07;;;;;;;5.32;2.75;;;14.20;53.30;;;;;;5072930;28;20033;-82
2021/06/02 03:48:54;;;;;;;7.22;3.25;;;14.30;53.30;;;;;;5076910;28;20028;-82
2021/06/02 03:51:36;;;;;;;5.72;2.70;;;14.30;53.20;;;;;;5088848;28;20085;-80
2021/06/02 03:54:22;;;;;;;7.30;3.33;;;14.40;53.30;;;;;;5072885;28;20066;-82
2021/06/02 03:57:12;;;;;;;8.45;3.55;;;14.40;53.10;;;;;;5072623;28;20398;-82
2021/06/02 03:59:44;;;;;;;8.07;3.60;;;14.40;52.60;;;;;;5072756;28;20121;-84
2021/06/02 04:02:32;;;;;;;9.65;3.60;;;14.40;52.90;;;;;;5073133;28;20028;-82
2021/06/02 04:05:14;;;;;;;5.82;2.75;;;14.40;53.00;;;;;;5060474;28;20074;-81
2021/06/02 04:08:18;;;;;;;6.07;3.67;;;14.60;52.60;;;;;;5072978;28;20029;-81
2021/06/02 04:11:03;;;;;;;7.47;3.72;;;14.70;52.20;;;;;;5076356;28;20051;-80
2021/06/02 04:13:44;;;;;;;8.05;3.13;;;14.70;52.30;;;;;;5080207;28;20028;-81
2021/06/02 04:16:15;;;;;;;8.70;4.70;;;14.80;51.80;;;;;;5078046;28;20043;-83
2021/06/02 04:18:42;;;;;;;7.28;3.20;;;14.90;51.20;;;;;;5079017;28;20017;-80
2021/06/02 04:21:10;;;;;;;10.25;4.15;;;14.90;50.60;;;;;;5076866;28;20500;-82
2021/06/02 04:23:39;;;;;;;6.07;3.05;;;15.00;51.30;;;;;;5076704;28;20108;-82
2021/06/02 04:26:05;;;;;;;7.47;4.45;;;15.10;51.10;;;;;;5076255;28;20036;-81
2021/06/02 04:28:34;;;;;;;5.32;2.50;;;15.20;50.40;;;;;;5076650;28;20362;-82
2021/06/02 04:31:08;;;;;;;7.40;3.88;;;15.20;49.50;;;;;;5076687;28;20377;-83
2021/06/02 04:33:36;;;;;;;4.05;3.00;;;15.20;49.40;;;;;;5076082;28;20024;-82
2021/06/02 04:36:05;;;;;;;4.28;2.67;;;15.20;50.00;;;;;;5076669;28;20122;-83
2021/06/02 04:38:31;;;;;;;8.95;2.90;;;15.40;49.60;;;;;;5075848;28;20032;-79
2021/06/02 04:41:04;;;;;;;8.52;3.55;;;15.50;49.40;;;;;;5075637;28;20112;-82
2021/06/02 04:43:33;;;;;;;7.15;2.15;;;15.60;49.10;;;;;;5075613;28;20020;-82
2021/06/02 04:46:03;;;;;;;5.07;2.97;;;15.70;48.20;;;;;;5075673;28;20037;-81
2021/06/02 04:48:29;;;;;;;11.07;3.28;;;15.70;47.90;;;;;;5068623;28;20031;-81
2021/06/02 04:51:34;;;;;;;6.25;3.25;;;15.80;47.60;;;;;;5060480;28;20074;-81
2021/06/02 04:54:37;;;;;;;11.05;3.40;;;15.90;47.50;;;;;;5013720;28;20648;-83
2021/06/02 04:57:17;;;;;;;5.15;2.15;;;16.10;46.90;;;;;;5075509;28;20204;-81
2021/06/02 05:00:03;;;;;;;5.72;2.22;;;16.10;46.00;;;;;;5059978;28;20016;-82
2021/06/02 05:03:06;;;;;;;6.70;4.47;;;16.20;46.20;;;;;;5075769;28;20032;-80
2021/06/02 05:05:53;;;;;;;5.65;2.30;;;16.40;46.20;;;;;;5075958;28;20075;-82
2021/06/02 05:08:40;;;;;;;7.65;2.85;;;16.90;44.90;;;;;;5063332;28;20112;-82
2021/06/02 05:11:42;;;;;;;6.30;3.15;;;18.00;43.70;;;;;;5076255;28;20422;-82
2021/06/02 05:14:32;;;;;;;10.50;2.47;;;19.10;42.30;;;;;;5075484;28;20082;-82
2021/06/02 05:17:29;;;;;;;5.07;2.58;;;20.40;39.80;;;;;;5064354;28;20485;-82
2021/06/02 05:20:24;;;;;;;4.35;3.28;;;21.40;38.40;;;;;;5075035;28;20485;-82
2021/06/02 05:23:21;;;;;;;5.82;2.72;;;22.20;35.60;;;;;;5077196;28;20497;-80
2021/06/02 05:26:24;;;;;;;5.90;2.40;;;22.80;34.10;;;;;;5064854;28;20037;-80
2021/06/02 05:29:10;;;;;;;10.25;2.75;;;23.00;34.10;;;;;;5043614;28;20476;-81
2021/06/02 05:31:42;;;;;;;6.55;2.72;;;23.60;33.00;;;;;;5054515;28;20359;-80
2021/06/02 05:34:52;;;;;;;5.50;2.30;;;23.50;32.80;;;;;;5054694;28;20143;-81
2021/06/02 05:37:45;;;;;;;8.52;2.50;;;24.10;31.90;;;;;;5031351;28;20308;-83
2021/06/02 05:40:24;;;;;;;9.60;3.10;;;24.30;31.60;;;;;;5047765;28;20028;-80
2021/06/02 05:43:14;;;;;;;14.65;3.60;;;25.00;31.70;;;;;;5047834;28;20591;-82
2021/06/02 05:46:04;;;;;;;10.32;2.85;;;25.60;30.60;;;;;;5054329;28;20033;-83
2021/06/02 05:48:38;;;;;;;3.88;2.33;;;25.80;29.90;;;;;;5052185;28;20044;-83
2021/06/02 05:51:23;;;;;;;4.10;2.72;;;26.30;29.00;;;;;;5047771;28;20037;-83
2021/06/02 05:54:06;;;;;;;7.70;3.35;;;25.80;29.30;;;;;;5056882;28;20074;-82
2021/06/02 05:57:07;;;;;;;6.22;2.10;;;25.70;28.60;;;;;;5054441;28;20030;-81
2021/06/02 05:59:54;;;;;;;11.95;3.45;;;25.40;29.20;;;;;;5041606;28;20025;-83
2021/06/02 06:02:45;;;;;;;10.85;2.15;;;25.70;29.30;;;;;;5051117;28;20047;-84
2021/06/02 06:05:11;;;;;;;9.85;2.53;;;26.20;28.70;;;;;;5054933;28;20033;-83
2021/06/02 06:07:55;;;;;;;6.57;2.13;;;26.80;27.50;;;;;;5055366;28;20032;-84
2021/06/02 06:10:42;;;;;;;6.70;2.00;;;27.20;27.70;;;;;;5036925;28;20390;-84
2021/06/02 06:13:21;;;;;;;10.30;2.65;;;27.10;27.50;;;;;;5054938;28;20485;-82
2021/06/02 06:16:27;;;;;;;8.98;2.30;;;27.50;27.20;;;;;;5058944;28;20033;-82
2021/06/02 06:19:07;;;;;;;14.98;2.33;;;28.30;27.30;;;;;;5051098;28;20089;-80
2021/06/02 06:21:52;;;;;;;12.52;2.90;;;28.70;26.60;;;;;;5056187;28;20448;-80
2021/06/02 06:24:27;;;;;;;8.55;2.47;;;29.60;26.30;;;;;;5056753;28;20425;-85
2021/06/02 06:27:40;;;;;;;6.03;2.10;;;29.50;26.50;;;;;;5041231;28;20040;-82
2021/06/02 06:30:46;;;;;;;7.65;2.15;;;29.20;25.90;;;;;;5081344;28;20457;-88
2021/06/02 06:33:43;;;;;;;4.38;2.08;;;28.90;26.00;;;;;;5061149;28;20065;-84
2021/06/02 06:36:10;;;;;;;10.35;2.72;;;28.70;26.50;;;;;;5068425;28;20041;-78
2021/06/02 06:38:54;;;;;;;6.13;2.90;;;29.10;25.90;;;;;;5074408;28;20068;-79
2021/06/02 06:41:24;;;;;;;2.92;1.73;;;29.10;26.20;;;;;;5067225;28;20035;-82
2021/06/02 06:43:53;;;;;;;5.00;3.10;;;29.00;25.90;;;;;;5064434;28;20050;-82
2021/06/02 06:46:22;;;;;;;4.32;2.28;;;29.40;25.90;;;;;;5073292;28;20020;-81
2021/06/02 06:48:49;;;;;;;7.90;3.75;;;30.30;25.70;;;;;;5073622;28;20024;-84
2021/06/02 06:51:19;;;;;;;4.88;2.00;;;30.00;25.20;;;;;;5073620;28;20016;-85
2021/06/02 06:53:47;;;;;;;7.30;1.75;;;28.80;25.80;;;;;;5073360;28;20020;-86
2021/06/02 06:56:14;;;;;;;6.18;3.45;;;28.60;25.90;;;;;;5073432;28;20489;-84
2021/06/02 06:58:40;;;;;;;14.77;6.32;;;29.10;26.00;;;;;;5073853;28;20025;-85
2021/06/02 07:01:06;;;;;;;8.30;2.80;;;29.40;25.90;;;;;;5059303;28;20021;-84
2021/06/02 07:03:33;;;;;;;12.00;2.70;;;30.50;25.60;;;;;;5056695;28;20029;-82
2021/06/02 07:06:04;;;;;;;7.90;2.42;;;31.30;25.30;;;;;;5074665;28;20318;-84
2021/06/02 07:08:31;;;;;;;7.47;2.60;;;32.50;24.80;;;;;;5073685;28;20031;-85
2021/06/02 07:11:03;;;;;;;8.93;2.20;;;32.70;24.50;;;;;;5055597;28;20036;-83
2021/06/02 07:13:31;;;;;;;12.40;2.22;;;32.70;24.20;;;;;;5073322;28;20096;-83
2021/06/02 07:16:00;;;;;;;4.55;2.20;;;33.40;23.80;;;;;;5072777;28;20029;-82
2021/06/02 07:18:27;;;;;;;8.00;2.50;;;33.20;23.60;;;;;;5073078;28;20017;-83
2021/06/02 07:20:54;;;;;;;4.25;2.60;;;31.10;24.00;;;;;;5073574;28;20029;-83
2021/06/02 07:23:20;;;;;;;5.63;2.80;;;29.70;25.30;;;;;;5073629;28;20023;-82
2021/06/02 07:25:46;;;;;;;6.90;2.53;;;30.10;25.40;;;;;;5073081;28;20106;-83
2021/06/02 07:28:13;;;;;;;4.73;1.80;;;31.10;25.20;;;;;;5073252;28;20031;-84
2021/06/02 07:30:40;;;;;;;7.55;2.25;;;33.30;24.50;;;;;;5073156;28;20024;-84
2021/06/02 07:33:06;;;;;;;7.07;2.30;;;34.30;23.60;;;;;;5053508;28;20031;-85
2021/06/02 07:35:33;;;;;;;4.90;2.13;;;34.30;23.20;;;;;;5044681;28;20071;-82
2021/06/02 07:37:58;;;;;;;4.88;2.08;;;33.20;23.40;;;;;;5054890;28;20086;-83
2021/06/02 07:40:24;;;;;;;3.30;2.07;;;32.40;24.00;;;;;;5073321;28;20024;-84
2021/06/02 07:42:50;;;;;;;12.97;2.57;;;33.30;24.00;;;;;;5074532;28;20478;-84
2021/06/02 07:45:17;;;;;;;2.20;1.83;;;33.70;23.70;;;;;;5076858;28;20021;-84
2021/06/02 07:47:43;;;;;;;;;;;32.70;23.50;;;;;;5075936;28;20373;-83
2021/06/02 07:50:10;;;;;;;7.35;5.00;;;31.30;23.90;;;;;;5071128;28;19909;-85
2021/06/02 07:52:36;;;;;;;3.83;2.40;;;30.50;24.90;;;;;;5060929;28;20025;-85
2021/06/02 07:55:02;;;;;;;12.27;2.57;;;31.60;24.50;;;;;;5054651;28;20029;-84
2021/06/02 07:57:28;;;;;;;7.13;1.80;;;31.80;24.40;;;;;;5073481;28;20032;-86
2021/06/02 07:59:54;;;;;;;5.53;1.92;;;32.10;24.70;;;;;;5073040;28;20118;-83
2021/06/02 08:02:20;;;;;;;10.17;2.73;;;31.50;24.10;;;;;;5073547;28;20383;-83
2021/06/02 08:04:46;;;;;;;4.27;1.67;;;30.60;25.20;;;;;;5078784;28;20052;-84
2021/06/02 08:07:12;;;;;;;4.40;1.38;;;31.20;24.80;;;;;;5090277;28;20020;-82
2021/06/02 08:09:38;;;;;;;5.63;2.22;;;31.50;24.70;;;;;;5081140;28;20397;-85
2021/06/02 08:12:06;;;;;;;5.27;2.30;;;31.30;24.90;;;;;;5073499;28;20097;-84
2021/06/02 08:14:33;;;;;;;11.73;2.63;;;31.40;25.00;;;;;;5054829;28;20139;-83
2021/06/02 08:16:59;;;;;;;3.33;1.35;;;32.40;24.60;;;;;;5073006;28;20028;-83
2021/06/02 08:19:25;;;;;;;5.17;1.70;;;32.50;24.10;;;;;;5072598;28;20025;-83
2021/06/02 08:21:51;;;;;;;5.10;1.80;;;32.50;24.40;;;;;;5074345;28;20497;-85
2021/06/02 08:24:17;;;;;;;5.20;1.70;;;33.50;23.90;;;;;;5073805;28;20035;-88
2021/06/02 08:26:45;;;;;;;6.57;2.00;;;32.90;23.60;;;;;;5051129;28;20053;-82
2021/06/02 08:29:11;;;;;;;13.90;2.47;;;31.60;23.80;;;;;;5052550;28;20299;-82
2021/06/02 08:31:37;;;;;;;3.33;1.60;;;29.80;25.10;;;;;;5052252;28;20021;-85
2021/06/02 08:34:03;;;;;;;5.43;1.73;;;29.90;25.40;;;;;;5052988;28;20579;-83
2021/06/02 08:36:31;;;;;;;4.70;1.75;;;31.90;25.00;;;;;;5050341;28;20032;-84
2021/06/02 08:38:57;;;;;;;9.20;2.45;;;32.60;24.30;;;;;;5052407;28;20025;-84
2021/06/02 08:41:23;;;;;;;6.20;2.40;;;32.50;23.70;;;;;;5050875;28;20025;-85
2021/06/02 08:43:49;;;;;;;7.15;2.30;;;32.30;24.00;;;;;;5052450;28;20432;-84
2021/06/02 08:46:17;;;;;;;4.25;1.70;;;33.10;23.70;;;;;;5040418;28;20032;-84
2021/06/02 08:48:51;;;;;;;7.95;2.28;;;33.70;23.90;;;;;;5050766;28;20139;-84
2021/06/02 08:51:20;;;;;;;3.50;1.63;;;33.90;22.90;;;;;;5052288;28;20546;-84
2021/06/02 08:53:49;;;;;;;3.42;1.95;;;31.10;23.40;;;;;;5052089;28;20025;-82
2021/06/02 08:56:17;;;;;;;9.65;4.18;;;29.30;24.90;;;;;;5054105;28;20390;-82
2021/06/02 08:58:43;;;;;;;5.00;1.75;;;30.10;25.40;;;;;;5055748;28;20039;-83
2021/06/02 09:01:09;;;;;;;6.20;1.60;;;32.00;24.80;;;;;;5055540;28;20024;-82
2021/06/02 09:03:35;;;;;;;4.38;2.22;;;33.60;24.00;;;;;;5056064;28;20262;-81
2021/06/02 09:06:07;;;;;;;9.45;3.75;;;33.90;23.00;;;;;;5056582;28;20053;-82
2021/06/02 09:08:34;;;;;;;8.45;3.30;;;33.30;23.20;;;;;;5057199;28;20048;-84
2021/06/02 09:11:12;;;;;;;9.30;2.88;;;32.50;23.60;;;;;;5060096;28;20067;-85
2021/06/02 09:13:37;;;;;;;7.22;2.20;;;32.90;24.00;;;;;;5056654;28;20100;-84
2021/06/02 09:16:19;;;;;;;4.83;2.33;;;33.00;23.20;;;;;;5055190;28;20080;-83
2021/06/02 09:18:56;;;;;;;5.55;2.17;;;31.90;23.70;;;;;;5047757;28;20824;-83
2021/06/02 09:21:55;;;;;;;6.03;2.95;;;31.30;24.30;;;;;;5037387;28;20110;-84
2021/06/02 09:24:43;;;;;;;6.28;2.50;;;30.00;24.30;;;;;;5049959;28;20136;-85
2021/06/02 09:27:09;;;;;;;5.13;2.55;;;27.40;25.70;;;;;;5067616;28;20090;-83
2021/06/02 09:29:56;;;;;;;7.28;2.55;;;26.10;27.10;;;;;;5074963;28;20020;-83
2021/06/02 09:32:23;;;;;;;;;;;25.90;27.50;;;;;;5057918;28;20136;-85
2021/06/02 09:34:58;;;;;;;6.47;2.38;;;26.80;27.50;;;;;;5070999;28;19967;-82
2021/06/02 09:37:24;;;;;;;2.50;1.70;;;28.80;27.00;;;;;;5075780;28;20428;-83
2021/06/02 09:39:50;;;;;;;5.37;2.07;;;31.10;25.40;;;;;;5075665;28;20020;-83
2021/06/02 09:42:29;;;;;;;8.73;2.57;;;33.10;24.60;;;;;;5066816;28;20032;-83
2021/06/02 09:45:09;;;;;;;9.07;2.78;;;34.00;23.60;;;;;;5071601;28;20344;-83
2021/06/02 09:47:52;;;;;;;6.57;2.60;;;32.70;23.70;;;;;;5075035;28;20086;-84
2021/06/02 09:50:40;;;;;;;7.78;2.60;;;31.50;23.90;;;;;;5068442;28;20067;-83
2021/06/02 09:53:09;;;;;;;10.57;2.88;;;30.60;24.50;;;;;;5047141;28;20441;-84
2021/06/02 09:55:40;;;;;;;7.20;2.95;;;29.10;25.20;;;;;;5027870;28;20040;-85
2021/06/02 09:58:09;;;;;;;8.52;2.90;;;28.30;26.00;;;;;;5074738;28;20107;-84
2021/06/02 10:00:37;;;;;;;6.97;2.97;;;28.20;26.50;;;;;;5038876;28;20071;-83
2021/06/02 10:03:16;;;;;;;5.70;3.03;;;28.10;26.80;;;;;;5047993;28;20017;-82
2021/06/02 10:05:49;;;;;;;4.57;3.00;;;28.40;27.00;;;;;;5064386;28;20025;-82
2021/06/02 10:08:31;;;;;;;5.85;3.25;;;28.40;26.50;;;;;;5051197;28;20552;-85
2021/06/02 10:11:13;;;;;;;6.10;3.58;;;;;;;;;;5080692;28;20555;-84
2021/06/02 10:13:40;;;;;;;6.55;3.45;;;;;;;;;;5082669;28;20075;-82
2021/06/02 10:16:09;;;;;;;4.30;2.40;;;;;;;;;;5049155;28;20064;-82
2021/06/02 10:18:39;;;;;;;2.58;1.83;;;;;;;;;;5083389;28;20036;-83
2021/06/02 10:21:15;;;;;;;7.68;4.10;;;;;;;;;;5078538;28;20021;-84
2021/06/02 10:23:43;;;;;;;6.77;2.73;;;;;;;;;;5074944;28;20495;-83
2021/06/02 10:26:11;;;;;;;3.22;1.70;;;;;;;;;;5056986;28;20060;-84
2021/06/02 10:28:38;;;;;;;3.53;1.65;;;;;;;;;;5075589;28;20039;-86
2021/06/02 10:31:05;;;;;;;4.50;3.00;;;;;;;;;;5075521;28;20024;-84
2021/06/02 10:33:32;;;;;;;7.30;2.30;;;;;;;;;;5074791;28;20036;-83
2021/06/02 10:35:59;;;;;;;4.47;2.85;;;;;;;;;;5042593;28;20041;-85
2021/06/02 10:38:26;;;;;;;5.35;2.60;;;;;;;;;;5045996;28;20075;-83
2021/06/02 10:40:52;;;;;;;4.63;2.13;;;27.40;26.90;;;;;;5074957;28;20031;-82
2021/06/02 10:43:30;;;;;;;2.75;2.05;;;23.00;32.80;;;;;;5074640;28;20447;-83
2021/06/02 10:46:17;;;;;;;6.32;2.20;;;22.60;33.00;;;;;;5075274;28;20110;-84
2021/06/02 10:48:47;;;;;;;7.90;2.35;;;22.40;33.10;;;;;;5074523;28;20070;-85
2021/06/02 10:51:27;;;;;;;9.43;2.47;;;22.30;33.90;;;;;;5074780;28;20025;-83
2021/06/02 10:54:21;;;;;;;3.20;2.10;;;22.20;34.20;;;;;;5055929;28;20020;-83
2021/06/02 10:56:59;;;;;;;5.22;2.50;;;22.00;34.20;;;;;;5074094;28;20048;-84
2021/06/02 10:59:36;;;;;;;4.13;2.42;;;21.90;34.50;;;;;;5074324;28;20039;-84
2021/06/02 11:02:03;;;;;;;3.70;1.60;;;21.80;34.60;;;;;;5062192;28;20021;-82
2021/06/02 11:04:30;;;;;;;4.57;2.28;;;21.90;34.90;;;;;;5071861;28;20116;-84
2021/06/02 11:07:13;;;;;;;3.20;1.87;;;22.00;34.70;;;;;;5074844;28;20036;-84
2021/06/02 11:10:05;;;;;;;6.35;2.25;;;22.20;34.50;;;;;;5073685;28;20017;-85
2021/06/02 11:12:49;;;;;;;4.72;2.63;;;22.20;34.60;;;;;;5073784;28;20024;-84
2021/06/02 11:15:41;;;;;;;6.10;2.33;;;21.80;35.10;;;;;;5055810;28;20054;-85
2021/06/02 11:18:15;;;;;;;5.90;3.08;;;21.60;35.50;;;;;;5047595;28;20028;-83
2021/06/02 11:20:57;;;;;;;6.97;2.45;;;21.50;35.90;;;;;;5073050;28;20027;-83
2021/06/02 11:23:33;;;;;;;10.40;2.90;;;21.30;36.10;;;;;;5056607;28;20045;-83
2021/06/02 11:26:25;;;;;;;10.05;2.60;;;21.50;36.00;;;;;;5066179;28;20051;-85
2021/06/02 11:28:51;;;;;;;9.77;2.55;;;21.60;35.80;;;;;;5049839;28;20023;-82
2021/06/02 11:31:24;;;;;;;7.93;3.22;;;21.60;35.50;;;;;;5072538;28;20473;-84
2021/06/02 11:33:51;;;;;;;4.70;2.17;;;21.50;35.30;;;;;;5074076;28;20059;-84
2021/06/02 11:36:17;;;;;;;4.40;1.98;;;21.60;35.70;;;;;;5070950;28;20036;-85
2021/06/02 11:38:43;;;;;;;7.47;2.17;;;21.80;34.80;;;;;;5055898;28;20013;-85
2021/06/02 11:41:12;;;;;;;8.02;2.25;;;21.80;35.00;;;;;;5048099;28;20028;-84
2021/06/02 11:43:38;;;;;;;3.88;1.80;;;21.80;35.10;;;;;;5059544;28;20016;-85
2021/06/02 11:46:04;;;;;;;10.00;2.50;;;21.60;35.20;;;;;;5074252;28;20104;-83
2021/06/02 11:48:33;;;;;;;3.10;2.20;;;21.50;35.20;;;;;;5073759;28;20020;-83
2021/06/02 11:51:03;;;;;;;5.40;2.55;;;21.40;34.90;;;;;;5073615;28;20055;-81
2021/06/02 11:53:37;;;;;;;3.67;1.90;;;21.40;35.30;;;;;;5073212;28;20057;-82
2021/06/02 11:56:03;;;;;;;8.07;2.70;;;21.60;34.10;;;;;;5073468;28;20067;-82
2021/06/02 11:58:28;;;;;;;6.72;2.28;;;21.80;34.10;;;;;;5073785;28;20108;-83
2021/06/02 12:00:54;;;;;;;7.30;2.20;;;22.00;34.20;;;;;;5073136;28;20024;-84
2021/06/02 12:03:21;;;;;;;12.43;3.28;;;22.10;34.00;;;;;;5054133;28;20538;-82
2021/06/02 12:05:49;;;;;;;4.30;2.00;;;22.10;33.80;;;;;;5054756;28;20045;-82
2021/06/02 12:08:16;;;;;;;10.40;5.43;;;22.30;33.40;;;;;;5070951;28;20048;-83
2021/06/02 12:10:51;;;;;;;3.83;2.08;;;22.30;33.60;;;;;;5069539;28;20020;-86
2021/06/02 12:13:20;;;;;;;7.10;2.10;;;22.10;34.00;;;;;;5044705;28;20049;-85
2021/06/02 12:15:58;;;;;;;5.22;2.08;;;21.90;34.00;;;;;;5045583;28;20044;-82
2021/06/02 12:18:44;;;;;;;5.43;1.95;;;21.80;33.90;;;;;;5047246;28;20021;-84
2021/06/02 12:21:13;;;;;;;7.95;2.22;;;21.70;33.80;;;;;;5059771;28;20036;-85
2021/06/02 12:23:51;;;;;;;13.20;2.33;;;21.50;34.20;;;;;;5074877;28;20052;-83
2021/06/02 12:26:42;;;;;;;5.53;2.80;;;21.50;34.40;;;;;;5072796;28;20413;-84
2021/06/02 12:29:14;;;;;;;6.25;1.85;;;21.40;34.50;;;;;;5053672;28;20511;-82
2021/06/02 12:31:43;;;;;;;9.55;2.70;;;21.30;34.80;;;;;;5093439;28;20024;-83
2021/06/02 12:34:12;;;;;;;8.13;2.60;;;21.30;35.20;;;;;;5077505;28;20021;-83
2021/06/02 12:36:43;;;;;;;6.65;2.20;;;21.40;35.30;;;;;;5073544;28;20075;-83
2021/06/02 12:39:13;;;;;;;8.15;3.13;;;21.50;34.90;;;;;;5067866;28;20354;-82
2021/06/02 12:41:43;;;;;;;4.47;1.88;;;21.50;34.90;;;;;;5075220;28;20052;-83
2021/06/02 12:44:09;;;;;;;5.20;2.30;;;21.50;34.70;;;;;;5056342;28;20477;-85
2021/06/02 12:46:35;;;;;;;7.75;2.30;;;21.50;34.40;;;;;;5071303;28;20381;-86
2021/06/02 12:49:08;;;;;;;2.83;1.80;;;21.60;34.30;;;;;;5059269;28;20469;-84
2021/06/02 12:51:36;;;;;;;4.43;2.10;;;21.60;34.20;;;;;;5058258;28;20029;-82
2021/06/02 12:54:02;;;;;;;5.43;1.92;;;21.70;34.20;;;;;;5076463;28;20017;-85
2021/06/02 12:56:28;;;;;;;6.55;1.92;;;21.80;34.40;;;;;;5064232;28;20142;-85
2021/06/02 12:58:58;;;;;;;7.55;2.35;;;21.90;33.80;;;;;;5074363;28;20027;-85
2021/06/02 13:01:31;;;;;;;4.38;2.38;;;21.80;33.90;;;;;;5058498;28;20070;-85
2021/06/02 13:04:01;;;;;;;5.88;2.10;;;21.60;34.40;;;;;;5076208;28;20123;-85
2021/06/02 13:06:32;;;;;;;5.82;2.40;;;21.60;34.40;;;;;;5075709;28;20499;-85
2021/06/02 13:09:06;;;;;;;7.00;3.05;;;21.60;34.50;;;;;;5076512;28;20043;-83
2021/06/02 13:11:33;;;;;;;6.55;2.88;;;21.80;34.60;;;;;;5075981;28;20055;-84
2021/06/02 13:14:04;;;;;;;5.65;1.90;;;21.90;35.10;;;;;;5076889;28;20021;-83
2021/06/02 13:16:30;;;;;;;8.70;2.50;;;21.90;35.20;;;;;;5071217;28;20123;-82
2021/06/02 13:18:59;;;;;;;5.45;2.50;;;21.90;35.10;;;;;;5056475;28;20025;-84
2021/06/02 13:21:31;;;;;;;6.07;2.15;;;21.90;35.10;;;;;;5073434;28;20040;-83
2021/06/02 13:24:17;;;;;;;3.47;2.00;;;22.00;35.30;;;;;;5076594;28;20119;-84
2021/06/02 13:26:58;;;;;;;3.87;2.13;;;22.20;35.40;;;;;;5075802;28;20386;-82
2021/06/02 13:29:24;;;;;;;7.28;4.07;;;22.30;35.50;;;;;;5075412;28;20093;-85
2021/06/02 13:31:52;;;;;;;5.93;2.25;;;22.50;34.50;;;;;;5075398;28;20028;-83
2021/06/02 13:34:29;;;;;;;4.55;1.75;;;23.00;33.70;;;;;;5075636;28;20366;-85